WetterOnline ( https://www.wetteronline.de )

Wetter aktuell Stollberg

Aktuelles Wetter: Chemnitz (420m)

6-stündlich | Neueste Meldungen
Ortszeit Temperatur Wetter
Sa, 21.05. 20:00 14.7° C wolkig
Sa, 21.05. 14:00 15.5° C bewölkt
Sa, 21.05. 8:00 12.0° C fast wolkenlos
Sa, 21.05. 2:00 16.6° C leicht bewölkt
Fr, 20.05. 20:00 21.6° C Regen
Fr, 20.05. 14:00 22.5° C bewölkt
Fr, 20.05. 8:00 16.9° C wolkig
Fr, 20.05. 2:00 14.9° C wolkig
Ortszeit Temperatur Wetter
So, 22.05. 0:30 10.6° C wolkig
So, 22.05. 0:20 10.6° C wolkig
So, 22.05. 0:10 10.6° C bedeckt
So, 22.05. 0:00 10.8° C bedeckt
Sa, 21.05. 23:50 10.8° C bedeckt
Sa, 21.05. 23:40 11.0° C bedeckt
Sa, 21.05. 23:30 10.6° C wolkig
Sa, 21.05. 23:00 10.2° C wolkig
Sa, 21.05. 22:30 11.1° C wolkig
Sa, 21.05. 22:00 11.2° C bedeckt
Sa, 21.05. 21:30 11.9° C bewölkt
Ortszeit Relative Feuchte Sichtweite
Sa, 21.05. 20:00 55% 55 km
Sa, 21.05. 14:00 57% 65 km
Sa, 21.05. 8:00 65% 55 km
Sa, 21.05. 2:00 87% 35 km
Fr, 20.05. 20:00 74% 35 km
Fr, 20.05. 14:00 65% 50 km
Fr, 20.05. 8:00 82% 55 km
Fr, 20.05. 2:00 96% 28 km
Ortszeit Relative Feuchte Sichtweite
So, 22.05. 0:30 77% 35 km
So, 22.05. 0:20 77% -
So, 22.05. 0:10 77% -
So, 22.05. 0:00 78% 40 km
Sa, 21.05. 23:50 78% -
Sa, 21.05. 23:40 76% -
Sa, 21.05. 23:30 77% 45 km
Sa, 21.05. 23:00 77% 40 km
Sa, 21.05. 22:30 73% 45 km
Sa, 21.05. 22:00 73% 45 km
Sa, 21.05. 21:30 70% 55 km
Ortszeit Niederschlagsmenge Niederschlagsart
Sa, 21.05. 20:00 0.0 l/m2 in 12 Std. -
Sa, 21.05. 14:00 0.0 l/m2 in 6 Std. -
Sa, 21.05. 8:00 1 l/m2 in 12 Std. -
Sa, 21.05. 2:00 1 l/m2 in 6 Std. Regen
Fr, 20.05. 20:00 1 l/m2 in 12 Std. Regen
Fr, 20.05. 14:00 0.0 l/m2 in 6 Std. -
Fr, 20.05. 8:00 1 l/m2 in 12 Std. -
Fr, 20.05. 2:00 1 l/m2 in 6 Std. Regen
Ortszeit Niederschlagsmenge Niederschlagsart
So, 22.05. 0:30 0.0 l/m2 in 1 Std. -
So, 22.05. 0:20 keine Meldung -
So, 22.05. 0:10 keine Meldung -
So, 22.05. 0:00 0.0 l/m2 in 1 Std. -
Sa, 21.05. 23:50 keine Meldung -
Sa, 21.05. 23:40 keine Meldung -
Sa, 21.05. 23:30 0.0 l/m2 in 1 Std. -
Sa, 21.05. 23:00 0.0 l/m2 in 1 Std. -
Sa, 21.05. 22:30 0.0 l/m2 in 1 Std. -
Sa, 21.05. 22:00 0.0 l/m2 in 1 Std. -
Sa, 21.05. 21:30 0.0 l/m2 in 1 Std. -
Ortszeit Stärke Spitze Richtung
km/h Bft. km/h Grad Sektor
Sa, 21.05. 20:00 20 4 48 290° W
Sa, 21.05. 14:00 30 5 48 270° W
Sa, 21.05. 8:00 29 5 72 280° W
Sa, 21.05. 2:00 33 5 52 260° W
Fr, 20.05. 20:00 11 2 28 180° S
Fr, 20.05. 14:00 4 1 18 10° N
Fr, 20.05. 8:00 9 2 30 250° W
Fr, 20.05. 2:00 14 3 72 220° SW
Ortszeit Stärke Spitze Richtung
km/h Bft. km/h Grad Sektor
So, 22.05. 0:30 9 2 13 220° SW
So, 22.05. 0:20 9 2 - 220° SW
So, 22.05. 0:10 9 2 - 230° SW
So, 22.05. 0:00 11 2 14 260° W
Sa, 21.05. 23:50 11 2 - 260° W
Sa, 21.05. 23:40 9 2 - 260° W
Sa, 21.05. 23:30 13 3 15 270° W
Sa, 21.05. 23:00 11 2 22 260° W
Sa, 21.05. 22:30 15 3 20 290° W
Sa, 21.05. 22:00 15 3 22 270° W
Sa, 21.05. 21:30 14 3 18 290° W
Ortszeit Untergrenze Bedeckung Gattung
total tief tief mittel hoch
Sa, 21.05. 20:00 5100 m 7/8 7/8 - - -
Sa, 21.05. 14:00 1260 m 7/8 7/8 - - -
Sa, 21.05. 8:00 1230 m 1/8 1/8 - - -
Sa, 21.05. 2:00 1140 m 6/8 1/8 - - -
Fr, 20.05. 20:00 2100 m 8/8 4/8 - - -
Fr, 20.05. 14:00 4200 m 8/8 7/8 - - -
Fr, 20.05. 8:00 10500 m 8/8 0/8 - - -
Fr, 20.05. 2:00 2700 m 8/8 3/8 - - -
Ortszeit Bedeckungsgrad in Achtel und Wolkenuntergrenze
So, 22.05. 0:30 3(1140m) 8(3900m) 8(8700m)
So, 22.05. 0:20 3(1140m) 8(3900m) 8(8700m)
So, 22.05. 0:10 8
So, 22.05. 0:00 8(4200m)
Sa, 21.05. 23:50 8(4200m)
Sa, 21.05. 23:40 8
Sa, 21.05. 23:30 1(1200m) 7(3900m) 8(9000m)
Sa, 21.05. 23:00 7(9000m)
Sa, 21.05. 22:30 5(4200m) 7(9000m)
Sa, 21.05. 22:00 8(4200m) 8(5400m)
Sa, 21.05. 21:30 7(4500m) 7(5700m)
Ortszeit Luftdruck NN (hPa) Tendenz (hPa in 3 Std.)
Sa, 21.05. 20:00 1019 - 0,3
Sa, 21.05. 14:00 1019 - 0,1
Sa, 21.05. 8:00 1020 + 1,9
Sa, 21.05. 2:00 1014 + 1,6
Fr, 20.05. 20:00 1011 - 3,8
Fr, 20.05. 14:00 1018 - 2,4
Fr, 20.05. 8:00 1022 + 1,2
Fr, 20.05. 2:00 1021 - 1,3
Ortszeit Luftdruck NN (hPa) Tendenz (hPa in 3 Std.)
So, 22.05. 0:30 1020 + 0,2
So, 22.05. 0:20 1020 keine Meldung
So, 22.05. 0:10 1020 keine Meldung
So, 22.05. 0:00 1020 + 0,1
Sa, 21.05. 23:50 1020 keine Meldung
Sa, 21.05. 23:40 1020 keine Meldung
Sa, 21.05. 23:30 1020 + 0,1
Sa, 21.05. 23:00 1020 + 0,2
Sa, 21.05. 22:30 1020 + 0,3
Sa, 21.05. 22:00 1020 + 0,1
Sa, 21.05. 21:30 1020 - 0,2
Ortszeit Schneehöhe (cm)
Sa, 21.05. 20:00 0
Sa, 21.05. 14:00 0
Sa, 21.05. 8:00 0
Sa, 21.05. 2:00 0
Fr, 20.05. 20:00 0
Fr, 20.05. 14:00 0
Fr, 20.05. 8:00 0
Fr, 20.05. 2:00 0
Ortszeit Schneehöhe (cm)
So, 22.05. 0:30 0
So, 22.05. 0:20 0
So, 22.05. 0:10 0
So, 22.05. 0:00 0
Sa, 21.05. 23:50 0
Sa, 21.05. 23:40 0
Sa, 21.05. 23:30 0
Sa, 21.05. 23:00 0
Sa, 21.05. 22:30 0
Sa, 21.05. 22:00 0
Sa, 21.05. 21:30 0
Link zu dieser Seite / Seite empfehlen

Das Wetter in ...